Time;durP1;ratioP1;P1;durP2;ratioP2;P2;SDS_P1;SDS_P2;PMS_P1;PMS_P2;Temp;Humidity;BMP_temperature;BMP_pressure;BME280_temperature;BME280_humidity;BME280_pressure;Samples;Min_cycle;Max_cycle;Signal;HPM_P1;HPM_P2
2022/05/21 00:02:21;;;;;;;9.90;4.82;;;;;;;;;;4952115;29;20091;-67
2022/05/21 00:04:52;;;;;;;13.70;5.32;;;;;;;;;;4920417;29;20072;-67
2022/05/21 00:07:23;;;;;;;12.20;4.57;;;;;;;;;;4932900;29;20056;-67
2022/05/21 00:09:54;;;;;;;11.85;4.93;;;;;;;;;;4889559;29;20056;-67
2022/05/21 00:12:24;;;;;;;10.85;4.65;;;;;;;;;;4914143;29;20067;-67
2022/05/21 00:14:56;;;;;;;11.50;4.78;;;;;;;;;;4914064;29;20063;-67
2022/05/21 00:17:27;;;;;;;13.60;4.90;;;;;;;;;;4914276;29;20532;-67
2022/05/21 00:20:00;;;;;;;13.93;5.50;;;;;;;;;;4888149;29;20551;-67
2022/05/21 00:22:35;;;;;;;11.52;5.63;;;;;;;;;;4899190;29;20056;-67
2022/05/21 00:25:06;;;;;;;12.82;5.50;;;;;;;;;;4891195;29;20076;-67
2022/05/21 00:27:36;;;;;;;12.13;5.35;;;;;;;;;;4876201;29;20061;-67
2022/05/21 00:30:08;;;;;;;12.25;5.63;;;;;;;;;;4901920;29;20408;-67
2022/05/21 00:32:39;;;;;;;12.13;5.35;;;;;;;;;;4913879;29;20503;-67
2022/05/21 00:35:10;;;;;;;11.88;4.93;;;;;;;;;;4913942;29;20059;-67
2022/05/21 00:37:41;;;;;;;14.02;5.32;;;;;;;;;;4898055;29;20051;-67
2022/05/21 00:40:13;;;;;;;11.50;5.53;;;;;;;;;;4924250;29;20059;-67
2022/05/21 00:42:44;;;;;;;12.93;4.97;;;;;;;;;;4932947;29;20063;-67
2022/05/21 00:45:17;;;;;;;12.23;4.82;;;;;;;;;;4924474;29;20542;-67
2022/05/21 00:47:48;;;;;;;19.30;6.35;;;;;;;;;;4932206;29;20407;-67
2022/05/21 00:50:23;;;;;;;24.30;8.25;;;;;;;;;;4948187;29;20060;-67
2022/05/21 00:52:54;;;;;;;24.80;9.27;;;;;;;;;;4897504;29;20056;-68
2022/05/21 00:55:32;;;;;;;24.85;9.77;;;;;;;;;;4912785;29;20083;-68
2022/05/21 01:01:02;;;;;;;14.38;6.68;;;;;;;;;;4876133;29;20060;-68
2022/05/21 01:03:33;;;;;;;14.70;6.07;;;;;;;;;;4891326;29;20064;-68
2022/05/21 01:06:03;;;;;;;13.73;5.82;;;;;;;;;;4894465;29;20065;-68
2022/05/21 01:08:34;;;;;;;12.63;5.65;;;;;;;;;;4856934;29;20049;-68
2022/05/21 01:11:12;;;;;;;15.20;5.85;;;;;;;;;;4856759;29;20053;-68
2022/05/21 01:13:45;;;;;;;19.98;7.63;;;;;;;;;;4856934;29;20065;-68
2022/05/21 01:16:17;;;;;;;14.82;6.20;;;;;;;;;;4856763;29;20064;-68
2022/05/21 01:18:48;;;;;;;12.93;5.82;;;;;;;;;;4826577;29;20065;-68
2022/05/21 01:21:20;;;;;;;12.52;5.28;;;;;;;;;;4809924;29;20510;-68
2022/05/21 01:23:50;;;;;;;13.48;5.15;;;;;;;;;;4838483;29;20395;-68
2022/05/21 01:26:23;;;;;;;;;;;;;;;;;;4855586;29;20084;-68
2022/05/21 01:28:54;;;;;;;11.68;5.13;;;;;;;;;;4841770;29;19924;-68
2022/05/21 01:31:25;;;;;;;12.93;5.00;;;;;;;;;;4838300;29;20046;-68
2022/05/21 01:33:56;;;;;;;14.05;5.38;;;;;;;;;;4838626;29;20058;-68
2022/05/21 01:36:27;;;;;;;11.50;5.25;;;;;;;;;;4869367;29;20057;-68
2022/05/21 01:38:58;;;;;;;10.80;4.80;;;;;;;;;;4938585;29;20085;-68
2022/05/21 01:41:29;;;;;;;14.55;5.80;;;;;;;;;;4931916;29;20443;-68
2022/05/21 01:46:49;;;;;;;11.48;5.00;;;;;;;;;;4898868;29;20063;-68
2022/05/21 01:49:19;;;;;;;12.95;5.68;;;;;;;;;;4908986;29;20059;-68
2022/05/21 01:51:50;;;;;;;12.70;5.25;;;;;;;;;;4920573;29;20063;-68
2022/05/21 01:54:21;;;;;;;13.82;4.75;;;;;;;;;;4942026;28;20058;-68
2022/05/21 01:56:52;;;;;;;11.23;4.90;;;;;;;;;;4907200;28;20507;-68
2022/05/21 01:59:24;;;;;;;10.32;5.00;;;;;;;;;;4970463;28;20062;-68
2022/05/21 02:01:55;;;;;;;11.77;5.28;;;;;;;;;;4913039;29;20083;-68
2022/05/21 02:04:26;;;;;;;10.00;5.05;;;;;;;;;;4912856;29;20525;-68
2022/05/21 02:06:57;;;;;;;11.00;5.07;;;;;;;;;;4913082;29;20444;-68
2022/05/21 02:09:28;;;;;;;14.23;5.32;;;;;;;;;;4941930;29;20056;-68
2022/05/21 02:12:00;;;;;;;10.80;5.15;;;;;;;;;;4907057;29;20066;-68
2022/05/21 02:14:32;;;;;;;13.10;5.40;;;;;;;;;;4935365;29;20056;-68
2022/05/21 02:17:03;;;;;;;10.20;4.50;;;;;;;;;;4935343;29;20450;-68
2022/05/21 02:19:34;;;;;;;12.77;5.03;;;;;;;;;;4919657;29;20055;-68
2022/05/21 02:22:04;;;;;;;13.18;5.10;;;;;;;;;;4935352;29;20455;-68
2022/05/21 02:24:37;;;;;;;11.77;5.35;;;;;;;;;;4968862;28;20517;-68
2022/05/21 02:27:10;;;;;;;11.65;4.88;;;;;;;;;;4992965;28;20057;-68
2022/05/21 02:29:42;;;;;;;10.13;5.20;;;;;;;;;;4976666;28;20066;-68
2022/05/21 02:32:14;;;;;;;10.77;4.60;;;;;;;;;;4993028;28;20063;-68
2022/05/21 02:34:45;;;;;;;13.20;4.55;;;;;;;;;;4992833;28;20470;-68
2022/05/21 02:40:06;;;;;;;9.65;4.45;;;;;;;;;;5022002;28;20452;-68
2022/05/21 02:42:43;;;;;;;11.98;4.13;;;;;;;;;;5032064;28;20057;-68
2022/05/21 02:45:17;;;;;;;9.27;4.40;;;;;;;;;;4999291;28;20060;-68
2022/05/21 02:47:49;;;;;;;9.30;3.92;;;;;;;;;;4999165;28;20060;-68
2022/05/21 02:50:24;;;;;;;10.90;4.43;;;;;;;;;;4999172;28;20532;-68
2022/05/21 02:52:57;;;;;;;10.07;3.60;;;;;;;;;;5084998;28;20060;-68
2022/05/21 02:55:29;;;;;;;9.73;4.03;;;;;;;;;;5059283;28;20381;-68
2022/05/21 02:58:01;;;;;;;9.50;4.63;;;;;;;;;;5094265;28;20040;-68
2022/05/21 03:00:34;;;;;;;9.85;4.50;;;;;;;;;;5051564;28;20509;-68
2022/05/21 03:03:04;;;;;;;7.65;3.83;;;;;;;;;;5051657;28;20049;-68
2022/05/21 03:05:35;;;;;;;8.98;4.07;;;;;;;;;;5051755;28;20424;-68
2022/05/21 03:10:56;;;;;;;9.02;3.78;;;;;;;;;;5014635;28;20049;-68
2022/05/21 03:13:28;;;;;;;10.85;3.97;;;;;;;;;;5031585;28;20057;-68
2022/05/21 03:16:00;;;;;;;13.52;4.60;;;;;;;;;;5051055;28;20564;-68
2022/05/21 03:18:31;;;;;;;8.98;4.00;;;;;;;;;;5050190;28;20049;-68
2022/05/21 03:21:01;;;;;;;11.65;3.47;;;;;;;;;;5050791;28;20060;-68
2022/05/21 03:23:32;;;;;;;8.50;3.85;;;;;;;;;;5050903;28;20049;-68
2022/05/21 03:26:03;;;;;;;10.70;3.60;;;;;;;;;;5051074;28;20056;-68
2022/05/21 03:28:34;;;;;;;8.80;3.53;;;;;;;;;;5050995;28;20064;-68
2022/05/21 03:31:04;;;;;;;9.30;3.88;;;;;;;;;;5070777;28;20040;-68
2022/05/21 03:33:34;;;;;;;8.95;4.18;;;;;;;;;;5070814;28;20056;-68
2022/05/21 03:36:05;;;;;;;9.75;4.30;;;;;;;;;;5070895;28;20056;-68
2022/05/21 03:38:36;;;;;;;8.32;4.10;;;;;;;;;;5040838;28;20061;-68
2022/05/21 03:41:07;;;;;;;8.75;3.58;;;;;;;;;;5050816;28;20049;-68
2022/05/21 03:43:37;;;;;;;11.20;3.70;;;;;;;;;;5050928;28;20057;-68
2022/05/21 03:46:08;;;;;;;8.30;3.83;;;;;;;;;;5050719;28;20049;-68
2022/05/21 03:48:39;;;;;;;10.60;3.70;;;;;;;;;;5050716;28;20531;-68
2022/05/21 03:51:10;;;;;;;7.38;3.15;;;;;;;;;;5001394;28;20053;-68
2022/05/21 03:53:40;;;;;;;8.32;3.83;;;;;;;;;;5050650;28;20056;-68
2022/05/21 03:56:11;;;;;;;9.57;3.28;;;;;;;;;;5060745;28;20052;-68
2022/05/21 03:58:42;;;;;;;7.85;3.17;;;;;;;;;;5050388;28;20048;-68
2022/05/21 04:01:15;;;;;;;8.90;3.50;;;;;;;;;;5013435;28;20046;-68
2022/05/21 04:03:45;;;;;;;8.30;3.30;;;;;;;;;;5030490;28;20053;-68
2022/05/21 04:06:16;;;;;;;9.93;3.75;;;;;;;;;;5030146;28;20061;-68
2022/05/21 04:08:49;;;;;;;9.93;3.60;;;;;;;;;;5030295;28;20080;-68
2022/05/21 04:11:20;;;;;;;8.88;4.15;;;;;;;;;;4997681;28;20056;-68
2022/05/21 04:13:50;;;;;;;7.50;3.63;;;;;;;;;;5030521;28;20050;-68
2022/05/21 04:16:21;;;;;;;8.52;3.78;;;;;;;;;;5010045;28;20050;-68
2022/05/21 04:18:53;;;;;;;9.18;3.60;;;;;;;;;;5010878;28;20085;-68
2022/05/21 04:21:26;;;;;;;9.70;3.50;;;;;;;;;;5010253;28;20153;-68
2022/05/21 04:23:56;;;;;;;8.02;3.33;;;;;;;;;;5029724;28;20060;-68
2022/05/21 04:26:27;;;;;;;7.15;3.47;;;;;;;;;;5010048;28;20050;-68
2022/05/21 04:28:58;;;;;;;9.02;3.75;;;;;;;;;;5010111;28;20061;-68
2022/05/21 04:31:29;;;;;;;9.90;3.90;;;;;;;;;;4993604;28;20073;-68
2022/05/21 04:34:01;;;;;;;8.57;3.63;;;;;;;;;;4994646;28;20068;-68
2022/05/21 04:36:34;;;;;;;8.80;3.38;;;;;;;;;;4990490;28;20077;-68
2022/05/21 04:39:05;;;;;;;7.88;3.35;;;;;;;;;;5009992;28;20148;-68
2022/05/21 04:41:36;;;;;;;7.07;3.28;;;;;;;;;;4994103;28;20057;-68
2022/05/21 04:44:07;;;;;;;7.68;3.33;;;;;;;;;;4998801;28;20058;-68
2022/05/21 04:46:38;;;;;;;13.43;3.67;;;;;;;;;;5010024;28;20072;-68
2022/05/21 04:49:08;;;;;;;8.60;3.75;;;;;;;;;;4977475;28;20050;-68
2022/05/21 04:51:40;;;;;;;8.80;3.47;;;;;;;;;;5010083;28;20062;-68
2022/05/21 04:54:11;;;;;;;7.30;2.75;;;;;;;;;;4998688;28;20566;-68
2022/05/21 04:56:41;;;;;;;9.95;3.42;;;;;;;;;;4990285;28;20427;-68
2022/05/21 04:59:13;;;;;;;8.80;3.42;;;;;;;;;;4990352;28;20117;-68
2022/05/21 05:01:43;;;;;;;9.43;3.15;;;;;;;;;;4989998;28;20525;-68
2022/05/21 05:04:14;;;;;;;7.97;3.05;;;;;;;;;;5001250;28;20050;-68
2022/05/21 05:06:45;;;;;;;6.97;2.97;;;;;;;;;;5020978;28;20057;-68
2022/05/21 05:09:19;;;;;;;8.43;3.03;;;;;;;;;;4977089;28;20051;-68
2022/05/21 05:11:51;;;;;;;5.75;2.83;;;;;;;;;;5009722;28;20403;-68
2022/05/21 05:14:22;;;;;;;7.22;2.97;;;;;;;;;;4945687;28;20457;-68
2022/05/21 05:16:52;;;;;;;8.40;3.80;;;;;;;;;;4993594;28;20413;-68
2022/05/21 05:19:23;;;;;;;12.35;3.58;;;;;;;;;;4977339;28;20049;-68
2022/05/21 05:21:53;;;;;;;9.43;3.05;;;;;;;;;;4951199;29;20066;-68
2022/05/21 05:24:25;;;;;;;7.40;2.72;;;;;;;;;;4935742;29;20062;-68
2022/05/21 05:26:55;;;;;;;6.93;2.90;;;;;;;;;;4951225;29;20058;-68
2022/05/21 05:29:26;;;;;;;8.60;3.75;;;;;;;;;;4951395;28;20055;-68
2022/05/21 05:31:57;;;;;;;9.23;2.80;;;;;;;;;;4961601;28;20123;-68
2022/05/21 05:34:28;;;;;;;8.13;2.70;;;;;;;;;;4970579;28;20059;-68
2022/05/21 05:37:01;;;;;;;7.05;2.90;;;;;;;;;;4970489;28;20058;-69
2022/05/21 05:39:31;;;;;;;7.53;3.20;;;;;;;;;;4959672;28;20067;-69
2022/05/21 05:42:04;;;;;;;6.43;2.80;;;;;;;;;;4970542;28;20062;-68
2022/05/21 05:44:35;;;;;;;6.30;2.85;;;;;;;;;;4974448;28;20059;-68
2022/05/21 05:47:06;;;;;;;7.85;3.17;;;;;;;;;;4985522;28;20054;-68
2022/05/21 05:49:36;;;;;;;6.65;2.80;;;;;;;;;;4993731;28;20073;-68
2022/05/21 05:52:08;;;;;;;6.60;2.97;;;;;;;;;;4993460;28;20077;-68
2022/05/21 05:54:39;;;;;;;7.85;3.60;;;;;;;;;;4993741;28;20553;-68
2022/05/21 05:57:11;;;;;;;6.82;2.80;;;;;;;;;;4973877;28;20066;-68
2022/05/21 05:59:50;;;;;;;8.07;3.08;;;;;;;;;;4969134;28;20126;-68
2022/05/21 06:05:31;;;;;;;7.80;2.58;;;;;;;;;;4973533;28;20047;-68
2022/05/21 06:08:07;;;;;;;5.43;2.47;;;;;;;;;;4974044;28;20062;-68
2022/05/21 06:10:40;;;;;;;6.22;2.65;;;;;;;;;;4973300;28;20045;-69
2022/05/21 06:13:14;;;;;;;7.65;2.70;;;;;;;;;;4973714;28;20062;-68
2022/05/21 06:15:45;;;;;;;4.82;2.13;;;;;;;;;;4973634;28;20526;-68
2022/05/21 06:18:20;;;;;;;7.68;3.08;;;;;;;;;;4973756;28;20426;-69
2022/05/21 06:20:51;;;;;;;7.68;2.97;;;;;;;;;;4957456;28;20067;-69
2022/05/21 06:23:21;;;;;;;7.72;2.53;;;;;;;;;;4953750;29;20047;-68
2022/05/21 06:25:52;;;;;;;6.93;2.80;;;;;;;;;;4954187;29;20063;-68
2022/05/21 06:28:23;;;;;;;5.45;3.10;;;;;;;;;;4954158;29;20062;-69
2022/05/21 06:30:53;;;;;;;6.72;2.55;;;;;;;;;;4954055;29;20070;-68
2022/05/21 06:33:31;;;;;;;7.57;2.45;;;;;;;;;;4969755;28;20558;-69
2022/05/21 06:36:03;;;;;;;7.25;2.58;;;;;;;;;;4937618;29;20528;-68
2022/05/21 06:38:35;;;;;;;5.30;2.15;;;;;;;;;;4954141;29;20573;-68
2022/05/21 06:41:07;;;;;;;7.28;3.03;;;;;;;;;;4972728;28;20058;-69
2022/05/21 06:43:39;;;;;;;5.55;2.40;;;;;;;;;;4987278;28;20054;-69
2022/05/21 06:46:11;;;;;;;7.63;2.78;;;;;;;;;;4976122;28;20054;-68
2022/05/21 06:48:41;;;;;;;8.55;2.85;;;;;;;;;;5005670;28;20092;-69
2022/05/21 06:51:11;;;;;;;6.65;2.28;;;;;;;;;;5012048;28;20062;-68
2022/05/21 06:53:43;;;;;;;4.93;2.42;;;;;;;;;;4995990;28;20790;-68
2022/05/21 06:56:15;;;;;;;7.15;2.95;;;;;;;;;;4979356;28;20054;-68
2022/05/21 06:58:47;;;;;;;5.28;2.03;;;;;;;;;;5011519;28;20069;-68
2022/05/21 07:01:17;;;;;;;6.13;2.03;;;;;;;;;;5024230;28;20069;-68
2022/05/21 07:03:48;;;;;;;6.35;2.20;;;;;;;;;;4992094;28;20055;-68
2022/05/21 07:09:07;;;;;;;5.53;2.60;;;;;;;;;;4992196;28;20406;-68
2022/05/21 07:11:39;;;;;;;4.72;2.38;;;;;;;;;;4938778;29;20503;-68
2022/05/21 07:14:10;;;;;;;6.32;2.25;;;;;;;;;;4914907;29;20436;-68
2022/05/21 07:16:41;;;;;;;8.00;2.67;;;;;;;;;;4899574;29;20527;-68
2022/05/21 07:19:12;;;;;;;4.90;2.78;;;;;;;;;;4870681;29;20436;-68
2022/05/21 07:21:43;;;;;;;6.22;1.98;;;;;;;;;;4896198;29;20412;-68
2022/05/21 07:24:13;;;;;;;6.43;2.42;;;;;;;;;;4933566;29;20082;-68
2022/05/21 07:26:46;;;;;;;6.95;2.35;;;;;;;;;;4934115;29;20055;-68
2022/05/21 07:29:16;;;;;;;;;;;;;;;;;;4918645;29;20044;-68
2022/05/21 07:31:47;;;;;;;5.10;1.80;;;;;;;;;;4939786;29;19922;-68
2022/05/21 07:34:17;;;;;;;5.97;2.30;;;;;;;;;;4933641;29;20059;-68
2022/05/21 07:36:49;;;;;;;4.30;1.90;;;;;;;;;;4952604;29;20047;-68
2022/05/21 07:39:20;;;;;;;4.35;2.20;;;;;;;;;;4953000;29;20460;-68
2022/05/21 07:41:51;;;;;;;6.30;2.25;;;;;;;;;;4965911;28;20062;-68
2022/05/21 07:44:22;;;;;;;6.53;2.15;;;;;;;;;;4972189;28;20062;-68
2022/05/21 07:46:52;;;;;;;4.47;1.52;;;;;;;;;;4988184;28;20050;-69
2022/05/21 07:49:24;;;;;;;7.03;2.38;;;;;;;;;;4971766;28;20058;-68
2022/05/21 07:51:56;;;;;;;7.85;2.22;;;;;;;;;;4992721;28;20413;-68
2022/05/21 07:54:28;;;;;;;7.85;2.30;;;;;;;;;;4952477;28;20058;-68
2022/05/21 07:57:01;;;;;;;7.38;2.88;;;;;;;;;;4910116;29;20101;-68
2022/05/21 07:59:32;;;;;;;5.80;2.13;;;;;;;;;;4949132;28;20059;-68
2022/05/21 08:02:03;;;;;;;4.85;2.00;;;;;;;;;;4902033;29;20510;-68
2022/05/21 08:04:36;;;;;;;4.63;1.75;;;;;;;;;;4901723;29;20060;-68
2022/05/21 08:07:06;;;;;;;5.40;2.00;;;;;;;;;;4933356;29;20574;-68
2022/05/21 08:09:38;;;;;;;4.88;1.80;;;;;;;;;;4936088;29;20062;-68
2022/05/21 08:12:14;;;;;;;8.50;2.13;;;;;;;;;;4952297;29;20051;-68
2022/05/21 08:14:45;;;;;;;5.55;2.75;;;;;;;;;;4964418;28;20062;-69
2022/05/21 08:17:16;;;;;;;4.40;1.63;;;;;;;;;;4951969;29;20482;-69
2022/05/21 08:19:46;;;;;;;5.50;1.80;;;;;;;;;;4932594;29;20059;-68
2022/05/21 08:27:57;;;;;;;5.22;2.00;;;;;;;;;;4933046;29;20052;-68
2022/05/21 08:30:27;;;;;;;5.72;1.90;;;;;;;;;;4932718;29;20055;-68
2022/05/21 08:33:04;;;;;;;4.35;1.88;;;;;;;;;;4949519;29;20055;-68
2022/05/21 08:35:38;;;;;;;5.57;1.83;;;;;;;;;;4952189;29;20055;-68
2022/05/21 08:38:10;;;;;;;6.47;2.00;;;;;;;;;;4951837;29;20051;-68
2022/05/21 08:41:03;;;;;;;5.05;1.90;;;;;;;;;;4970881;28;20050;-68
2022/05/21 08:43:50;;;;;;;3.35;1.30;;;;;;;;;;4971152;28;20063;-68
2022/05/21 08:46:34;;;;;;;5.95;2.40;;;;;;;;;;4934824;29;20381;-68
2022/05/21 08:49:26;;;;;;;4.45;1.77;;;;;;;;;;4928393;29;20060;-68
2022/05/21 08:52:11;;;;;;;;;;;;;;;;;;4901145;29;20059;-68
2022/05/21 08:54:45;;;;;;;5.25;1.75;;;;;;;;;;4932655;29;19922;-68
2022/05/21 08:57:25;;;;;;;3.35;1.52;;;;;;;;;;4932402;29;20523;-68
2022/05/21 09:00:12;;;;;;;10.77;2.17;;;;;;;;;;4932525;29;20048;-68
2022/05/21 09:02:43;;;;;;;5.88;1.70;;;;;;;;;;4900657;29;20044;-68
2022/05/21 09:05:17;;;;;;;4.55;1.70;;;;;;;;;;4913027;29;20501;-68
2022/05/21 09:08:06;;;;;;;8.43;1.95;;;;;;;;;;4913261;29;20524;-68
2022/05/21 09:10:48;;;;;;;4.40;1.83;;;;;;;;;;4913239;29;20059;-68
2022/05/21 09:13:36;;;;;;;4.00;1.45;;;;;;;;;;4875830;29;20080;-68
2022/05/21 09:19:00;;;;;;;6.00;1.63;;;;;;;;;;4865051;29;20072;-68
2022/05/21 09:21:32;;;;;;;5.05;2.50;;;;;;;;;;4861161;29;20057;-68
2022/05/21 09:24:06;;;;;;;3.65;1.83;;;;;;;;;;4841633;29;20058;-69
2022/05/21 09:26:47;;;;;;;3.67;1.67;;;;;;;;;;4860675;29;20053;-69
2022/05/21 09:29:34;;;;;;;4.80;1.88;;;;;;;;;;4889608;29;20427;-69
2022/05/21 09:32:23;;;;;;;4.97;2.67;;;;;;;;;;4879071;29;20196;-69
2022/05/21 09:35:13;;;;;;;5.50;1.80;;;;;;;;;;4879448;29;20083;-69
2022/05/21 09:37:46;;;;;;;5.18;1.52;;;;;;;;;;4879328;29;20413;-68
2022/05/21 09:40:30;;;;;;;5.47;1.70;;;;;;;;;;4879517;29;20064;-69
2022/05/21 09:46:30;;;;;;;4.13;1.55;;;;;;;;;;4916687;29;20048;-69
2022/05/21 09:49:13;;;;;;;5.97;2.00;;;;;;;;;;4916859;29;20052;-69
2022/05/21 09:51:54;;;;;;;5.53;2.30;;;;;;;;;;4932550;29;20059;-69
2022/05/21 09:54:33;;;;;;;7.07;2.33;;;;;;;;;;4964809;28;20410;-69
2022/05/21 09:57:05;;;;;;;4.85;1.75;;;;;;;;;;4973907;28;20047;-69
2022/05/21 09:59:40;;;;;;;6.43;2.17;;;;;;;;;;4942008;28;20046;-68
2022/05/21 10:02:22;;;;;;;6.18;2.25;;;;;;;;;;4960503;28;20050;-69
2022/05/21 10:04:59;;;;;;;4.32;1.50;;;;;;;;;;4951710;28;20160;-69
2022/05/21 10:10:59;;;;;;;6.75;2.03;;;;;;;;;;4945484;28;20058;-69
2022/05/21 10:13:49;;;;;;;5.13;1.88;;;;;;;;;;4973771;28;20046;-69
2022/05/21 10:16:38;;;;;;;6.18;2.42;;;;;;;;;;4973770;28;20511;-68
2022/05/21 10:19:30;;;;;;;6.18;2.10;;;;;;;;;;4954250;29;20055;-69
2022/05/21 10:22:39;;;;;;;9.27;2.50;;;;;;;;;;4954347;29;20055;-69
2022/05/21 10:25:24;;;;;;;5.55;1.90;;;;;;;;;;4874727;29;20068;-68
2022/05/21 10:28:01;;;;;;;7.90;2.55;;;;;;;;;;4859553;29;20066;-69
2022/05/21 10:31:03;;;;;;;5.80;2.40;;;;;;;;;;4859935;29;20050;-69
2022/05/21 10:33:46;;;;;;;5.57;1.92;;;;;;;;;;4879247;29;20064;-68
2022/05/21 10:36:47;;;;;;;7.05;2.10;;;;;;;;;;4865851;29;20049;-69
2022/05/21 10:39:55;;;;;;;6.57;2.20;;;;;;;;;;4859841;29;20061;-68
2022/05/21 10:42:56;;;;;;;6.57;2.53;;;;;;;;;;4859826;29;20068;-69
2022/05/21 10:45:45;;;;;;;6.70;2.45;;;;;;;;;;4859654;29;20065;-68
2022/05/21 10:48:52;;;;;;;7.15;2.25;;;;;;;;;;4859552;29;20068;-68
2022/05/21 10:51:39;;;;;;;6.32;2.13;;;;;;;;;;4844596;29;20065;-68
2022/05/21 10:54:22;;;;;;;8.20;3.08;;;;;;;;;;4859240;29;20057;-68
2022/05/21 10:57:19;;;;;;;6.75;2.58;;;;;;;;;;4863681;29;20053;-68
2022/05/21 11:00:05;;;;;;;8.45;2.83;;;;;;;;;;4896493;29;20456;-69
2022/05/21 11:03:31;;;;;;;8.35;2.47;;;;;;;;;;4896510;29;20053;-68
2022/05/21 11:06:14;;;;;;;6.95;2.20;;;;;;;;;;4915678;29;20112;-69
2022/05/21 11:09:28;;;;;;;5.80;2.40;;;;;;;;;;4915079;29;20060;-69
2022/05/21 11:12:09;;;;;;;7.35;3.05;;;;;;;;;;4843830;29;20046;-69
2022/05/21 11:14:52;;;;;;;8.65;4.15;;;;;;;;;;4855677;29;20410;-69
2022/05/21 11:17:23;;;;;;;8.02;3.30;;;;;;;;;;4843759;29;20434;-69
2022/05/21 11:20:22;;;;;;;8.90;3.63;;;;;;;;;;4840488;29;20443;-68
2022/05/21 11:23:06;;;;;;;9.45;4.05;;;;;;;;;;4858752;29;20057;-69
2022/05/21 11:26:11;;;;;;;10.23;4.28;;;;;;;;;;4858482;29;20046;-69
2022/05/21 11:28:51;;;;;;;9.82;4.55;;;;;;;;;;4843760;29;20065;-69
2022/05/21 11:38:01;;;;;;;8.35;3.40;;;;;;;;;;4822029;29;20066;-71
2022/05/21 11:47:06;;;;;;;7.63;3.90;;;;;;;;;;4840057;29;20066;-70
2022/05/21 11:49:42;;;;;;;7.90;3.90;;;;;;;;;;4931259;28;20066;-70
2022/05/21 11:52:28;;;;;;;9.30;3.47;;;;;;;;;;4971836;28;20054;-70
2022/05/21 11:55:01;;;;;;;8.52;4.18;;;;;;;;;;4971900;28;20058;-69
2022/05/21 11:57:34;;;;;;;10.90;5.25;;;;;;;;;;4971851;28;20070;-69
2022/05/21 12:00:17;;;;;;;11.57;4.10;;;;;;;;;;4978232;28;20411;-68
2022/05/21 12:02:54;;;;;;;10.35;3.80;;;;;;;;;;4954950;28;20064;-68
2022/05/21 12:05:41;;;;;;;10.35;3.55;;;;;;;;;;5046919;28;20049;-68
2022/05/21 12:08:19;;;;;;;9.15;3.50;;;;;;;;;;5034115;28;20049;-68
2022/05/21 12:11:02;;;;;;;8.40;3.45;;;;;;;;;;5052587;28;20044;-68
2022/05/21 12:13:36;;;;;;;22.83;10.73;;;;;;;;;;5034092;28;20053;-68
2022/05/21 12:16:16;;;;;;;18.48;5.60;;;;;;;;;;5052619;28;20045;-68
2022/05/21 12:18:51;;;;;;;12.73;5.25;;;;;;;;;;5052454;28;20052;-68
2022/05/21 12:21:38;;;;;;;13.73;6.07;;;;;;;;;;5052555;28;20053;-68
2022/05/21 12:24:10;;;;;;;17.55;8.43;;;;;;;;;;5004844;28;20045;-68
2022/05/21 12:26:46;;;;;;;17.50;8.45;;;;;;;;;;5033310;28;20099;-68
2022/05/21 12:29:25;;;;;;;23.63;10.25;;;;;;;;;;5016963;28;20049;-68
2022/05/21 12:31:59;;;;;;;18.25;8.10;;;;;;;;;;5049752;28;20057;-68
2022/05/21 12:34:39;;;;;;;23.33;11.85;;;;;;;;;;5049892;28;20420;-68
2022/05/21 12:37:29;;;;;;;158.32;65.13;;;;;;;;;;5050145;28;20048;-68
2022/05/21 12:40:10;;;;;;;88.82;39.33;;;;;;;;;;5033766;28;20412;-68
2022/05/21 12:42:52;;;;;;;21.65;10.00;;;;;;;;;;5033436;28;20061;-68
2022/05/21 12:45:45;;;;;;;19.80;9.15;;;;;;;;;;5049648;28;20060;-68
2022/05/21 12:48:31;;;;;;;21.92;9.52;;;;;;;;;;5049938;28;20045;-68
2022/05/21 12:51:07;;;;;;;29.30;10.23;;;;;;;;;;5033272;28;20056;-68
2022/05/21 12:54:01;;;;;;;86.80;31.73;;;;;;;;;;5009569;28;20053;-68
2022/05/21 12:56:35;;;;;;;19.05;8.90;;;;;;;;;;5009887;28;20445;-68
2022/05/21 12:59:19;;;;;;;60.45;18.70;;;;;;;;;;5010286;28;20402;-68
2022/05/21 13:01:57;;;;;;;18.38;8.27;;;;;;;;;;5020452;28;20049;-68
2022/05/21 13:04:40;;;;;;;27.30;11.00;;;;;;;;;;5029745;28;20056;-68
2022/05/21 13:07:23;;;;;;;57.38;19.85;;;;;;;;;;5029673;28;20432;-68
2022/05/21 13:10:04;;;;;;;56.17;17.00;;;;;;;;;;5029542;28;20053;-68
2022/05/21 13:12:43;;;;;;;45.95;16.98;;;;;;;;;;5029315;28;20072;-67
2022/05/21 13:15:27;;;;;;;12.75;4.28;;;;;;;;;;5029665;28;20049;-68
2022/05/21 13:18:21;;;;;;;20.15;9.55;;;;;;;;;;5009215;28;20527;-67
2022/05/21 13:21:10;;;;;;;10.98;5.03;;;;;;;;;;5009750;28;20061;-67
2022/05/21 13:24:04;;;;;;;8.43;3.38;;;;;;;;;;4981185;28;20057;-69
2022/05/21 13:26:38;;;;;;;12.35;5.43;;;;;;;;;;4970557;28;20055;-68
2022/05/21 13:29:12;;;;;;;10.82;4.43;;;;;;;;;;4954480;28;20050;-68
2022/05/21 13:31:44;;;;;;;9.48;4.97;;;;;;;;;;4970706;28;20066;-68
2022/05/21 13:34:21;;;;;;;13.73;6.50;;;;;;;;;;4970751;28;20561;-67
2022/05/21 13:37:00;;;;;;;23.33;10.57;;;;;;;;;;4970816;28;20066;-67
2022/05/21 13:39:36;;;;;;;13.85;6.55;;;;;;;;;;4970730;28;20051;-67
2022/05/21 13:42:07;;;;;;;32.42;12.85;;;;;;;;;;4970638;28;20391;-67
2022/05/21 13:44:42;;;;;;;22.17;8.95;;;;;;;;;;4989656;28;20054;-67
2022/05/21 13:47:22;;;;;;;12.88;6.40;;;;;;;;;;4989877;28;20061;-67
2022/05/21 13:49:55;;;;;;;21.42;9.73;;;;;;;;;;4989690;28;20065;-67
2022/05/21 13:52:29;;;;;;;18.58;10.30;;;;;;;;;;4973638;28;20054;-68
2022/05/21 13:55:03;;;;;;;18.55;8.38;;;;;;;;;;4999829;28;20058;-67
2022/05/21 13:57:35;;;;;;;16.75;7.97;;;;;;;;;;4980615;28;20053;-67
2022/05/21 14:00:16;;;;;;;16.77;7.00;;;;;;;;;;4980376;28;20517;-67
2022/05/21 14:02:50;;;;;;;14.38;7.93;;;;;;;;;;5002444;28;20061;-67
2022/05/21 14:05:46;;;;;;;16.13;7.45;;;;;;;;;;5073022;28;20050;-67
2022/05/21 14:08:36;;;;;;;15.68;7.15;;;;;;;;;;5056428;28;20048;-67
2022/05/21 14:11:14;;;;;;;12.90;6.50;;;;;;;;;;5039760;28;20048;-67
2022/05/21 14:14:13;;;;;;;11.88;7.05;;;;;;;;;;5072636;28;20044;-67
2022/05/21 14:16:46;;;;;;;12.10;6.13;;;;;;;;;;4980767;28;20062;-67
2022/05/21 14:19:17;;;;;;;14.10;7.57;;;;;;;;;;5012806;28;20061;-67
2022/05/21 14:22:05;;;;;;;10.18;5.05;;;;;;;;;;4947708;28;20054;-67
2022/05/21 14:24:41;;;;;;;13.75;5.70;;;;;;;;;;4992826;28;20057;-67
2022/05/21 14:27:22;;;;;;;16.65;6.20;;;;;;;;;;4944873;28;20058;-67
2022/05/21 14:29:58;;;;;;;13.90;6.38;;;;;;;;;;4954188;28;20066;-67
2022/05/21 14:32:33;;;;;;;11.43;6.25;;;;;;;;;;4954138;28;20070;-68
2022/05/21 14:35:13;;;;;;;14.23;7.00;;;;;;;;;;4954118;29;20063;-67
2022/05/21 14:37:46;;;;;;;11.95;6.25;;;;;;;;;;4922379;29;20055;-67
2022/05/21 14:40:18;;;;;;;12.75;6.32;;;;;;;;;;4973173;28;20051;-67
2022/05/21 14:42:50;;;;;;;8.82;5.07;;;;;;;;;;4941187;28;20046;-68
2022/05/21 14:45:31;;;;;;;16.48;6.53;;;;;;;;;;4973162;28;20423;-67
2022/05/21 14:48:03;;;;;;;20.08;9.27;;;;;;;;;;4974961;28;20049;-67
2022/05/21 14:53:48;;;;;;;13.00;5.80;;;;;;;;;;5031766;28;20123;-67
2022/05/21 14:56:30;;;;;;;11.43;5.20;;;;;;;;;;4984970;28;20045;-67
2022/05/21 14:59:01;;;;;;;11.88;6.65;;;;;;;;;;5038279;28;20068;-67
2022/05/21 15:01:31;;;;;;;9.60;4.88;;;;;;;;;;5011692;28;20046;-67
2022/05/21 15:04:06;;;;;;;9.65;4.72;;;;;;;;;;4995168;28;20521;-67
2022/05/21 15:06:38;;;;;;;6.82;3.28;;;;;;;;;;4979008;28;20387;-67
2022/05/21 15:09:15;;;;;;;13.13;6.75;;;;;;;;;;4972575;28;20482;-67
2022/05/21 15:11:49;;;;;;;11.65;5.90;;;;;;;;;;4937789;29;20495;-66
2022/05/21 15:14:20;;;;;;;9.50;4.38;;;;;;;;;;4920707;29;20047;-67
2022/05/21 15:16:51;;;;;;;8.52;4.32;;;;;;;;;;4921250;29;20051;-66
2022/05/21 15:19:22;;;;;;;10.43;4.32;;;;;;;;;;4921529;29;20055;-67
2022/05/21 15:21:57;;;;;;;8.07;4.57;;;;;;;;;;4953362;29;20407;-66
2022/05/21 15:24:28;;;;;;;8.60;4.38;;;;;;;;;;4963129;28;20055;-66
2022/05/21 15:26:59;;;;;;;7.20;4.00;;;;;;;;;;4955812;28;20065;-67
2022/05/21 15:29:29;;;;;;;17.27;8.40;;;;;;;;;;4972419;28;20095;-66
2022/05/21 15:32:00;;;;;;;10.38;5.47;;;;;;;;;;4952719;29;20059;-66
2022/05/21 15:34:31;;;;;;;10.52;5.55;;;;;;;;;;4921067;29;20059;-66
2022/05/21 15:37:03;;;;;;;14.32;8.35;;;;;;;;;;4953157;29;20165;-66
2022/05/21 15:39:33;;;;;;;13.73;7.53;;;;;;;;;;4965230;28;20446;-66
2022/05/21 15:42:06;;;;;;;9.07;4.40;;;;;;;;;;4940202;28;20203;-66
2022/05/21 15:44:39;;;;;;;8.95;4.32;;;;;;;;;;4971881;28;20535;-67
2022/05/21 15:47:11;;;;;;;5.55;3.08;;;;;;;;;;4952493;28;20043;-67
2022/05/21 15:49:42;;;;;;;8.05;4.28;;;;;;;;;;4964818;28;20055;-67
2022/05/21 15:52:24;;;;;;;7.45;3.65;;;;;;;;;;4972350;28;20082;-67
2022/05/21 15:54:55;;;;;;;6.10;3.33;;;;;;;;;;4957163;28;20162;-66
2022/05/21 15:57:26;;;;;;;6.53;3.35;;;;;;;;;;4972094;28;20062;-67
2022/05/21 15:59:56;;;;;;;8.82;3.25;;;;;;;;;;4936717;28;20047;-66
2022/05/21 16:02:31;;;;;;;7.07;3.15;;;;;;;;;;4952490;28;20435;-66
2022/05/21 16:05:03;;;;;;;5.93;2.72;;;;;;;;;;4952555;29;20070;-66
2022/05/21 16:07:34;;;;;;;5.78;2.75;;;;;;;;;;4952544;28;20047;-67
2022/05/21 16:10:06;;;;;;;7.60;3.67;;;;;;;;;;4969107;28;20077;-66
2022/05/21 16:12:37;;;;;;;5.72;2.40;;;;;;;;;;4929463;29;20059;-66
2022/05/21 16:15:41;;;;;;;4.70;2.53;;;;;;;;;;4914191;29;20405;-66
2022/05/21 16:18:14;;;;;;;7.07;3.08;;;;;;;;;;4948819;29;20051;-67